createdAt,value
2022-08-09T00:02:28.433Z,20.97
2022-08-09T00:05:03.698Z,21.19
2022-08-09T00:07:44.439Z,21.18
2022-08-09T00:10:18.106Z,21.06
2022-08-09T00:12:52.468Z,21.02
2022-08-09T00:15:26.546Z,21.08
2022-08-09T00:18:06.114Z,21.02
2022-08-09T00:20:42.398Z,21.03
2022-08-09T00:23:55.055Z,21.04
2022-08-09T00:26:04.950Z,20.93
2022-08-09T00:28:32.038Z,20.93
2022-08-09T00:31:30.562Z,20.83
2022-08-09T00:33:51.815Z,20.75
2022-08-09T00:36:19.902Z,20.73
2022-08-09T00:38:46.683Z,20.80
2022-08-09T00:44:10.835Z,20.61
2022-08-09T00:44:14.881Z,20.71
2022-08-09T00:46:56.340Z,20.65
2022-08-09T00:49:24.857Z,20.64
2022-08-09T00:51:56.441Z,20.52
2022-08-09T00:54:31.516Z,20.48
2022-08-09T00:57:10.424Z,20.50
2022-08-09T00:59:41.011Z,20.37
2022-08-09T01:02:14.884Z,20.45
2022-08-09T01:05:05.321Z,20.33
2022-08-09T01:08:00.942Z,20.22
2022-08-09T01:10:39.584Z,20.28
2022-08-09T01:13:18.719Z,20.19
2022-08-09T01:15:52.917Z,20.28
2022-08-09T01:18:29.991Z,20.27
2022-08-09T01:21:17.511Z,20.24
2022-08-09T01:24:27.259Z,20.26
2022-08-09T01:27:23.775Z,20.13
2022-08-09T01:30:02.423Z,20.05
2022-08-09T01:32:36.004Z,20.03
2022-08-09T01:35:28.657Z,20.08
2022-08-09T01:38:08.129Z,20.00
2022-08-09T01:40:42.978Z,20.05
2022-08-09T01:43:11.017Z,19.92
2022-08-09T01:45:44.663Z,19.91
2022-08-09T01:48:16.387Z,19.65
2022-08-09T01:50:48.526Z,19.63
2022-08-09T01:53:29.219Z,19.53
2022-08-09T01:56:09.429Z,19.45
2022-08-09T01:58:37.699Z,19.52
2022-08-09T02:01:05.553Z,19.47
2022-08-09T02:03:36.358Z,19.47
2022-08-09T02:06:06.782Z,19.47
2022-08-09T02:08:57.362Z,19.54
2022-08-09T02:11:42.869Z,19.48
2022-08-09T02:14:15.100Z,19.43
2022-08-09T02:16:59.380Z,19.38
2022-08-09T02:19:43.606Z,19.40
2022-08-09T02:22:19.100Z,19.32
2022-08-09T02:24:58.026Z,19.35
2022-08-09T02:27:58.246Z,19.31
2022-08-09T02:30:15.841Z,19.26
2022-08-09T02:32:48.346Z,19.21
2022-08-09T02:35:46.495Z,19.22
2022-08-09T02:38:10.901Z,19.13
2022-08-09T02:40:58.362Z,19.13
2022-08-09T02:43:28.754Z,19.13
2022-08-09T02:45:57.467Z,19.03
2022-08-09T02:48:30.715Z,18.88
2022-08-09T02:51:01.781Z,18.75
2022-08-09T02:53:35.967Z,18.77
2022-08-09T02:56:04.898Z,18.83
2022-08-09T02:58:37.665Z,18.84
2022-08-09T03:01:07.753Z,18.91
2022-08-09T03:04:12.389Z,18.92
2022-08-09T03:06:27.457Z,18.89
2022-08-09T03:08:56.296Z,18.85
2022-08-09T03:12:04.571Z,18.78
2022-08-09T03:14:12.500Z,18.76
2022-08-09T03:16:45.217Z,18.84
2022-08-09T03:19:52.618Z,18.81
2022-08-09T03:22:12.233Z,18.71
2022-08-09T03:24:52.615Z,18.74
2022-08-09T03:27:45.482Z,18.62
2022-08-09T03:30:14.196Z,18.57
2022-08-09T03:32:59.467Z,18.57
2022-08-09T03:36:11.481Z,18.44
2022-08-09T03:38:28.561Z,18.23
2022-08-09T03:40:55.727Z,18.08
2022-08-09T03:43:22.391Z,18.12
2022-08-09T03:46:05.324Z,18.18
2022-08-09T03:48:37.455Z,18.14
2022-08-09T03:51:57.485Z,18.17
2022-08-09T03:54:06.616Z,18.19
2022-08-09T03:56:41.053Z,18.15
2022-08-09T03:59:17.225Z,18.19
2022-08-09T04:01:50.078Z,18.09
2022-08-09T04:04:17.420Z,18.11
2022-08-09T04:06:48.748Z,18.14
2022-08-09T04:09:47.610Z,18.00
2022-08-09T04:12:11.913Z,17.88
2022-08-09T04:15:01.780Z,17.92
2022-08-09T04:17:30.285Z,17.80
2022-08-09T04:19:57.963Z,17.83
2022-08-09T04:22:29.603Z,17.92
2022-08-09T04:24:58.812Z,17.92
2022-08-09T04:27:25.648Z,17.79
2022-08-09T04:29:56.033Z,17.79
2022-08-09T04:32:31.223Z,17.84
2022-08-09T04:35:01.233Z,17.81
2022-08-09T04:37:45.976Z,17.87
2022-08-09T04:40:28.635Z,17.81
2022-08-09T04:43:00.477Z,17.69
2022-08-09T04:45:30.374Z,17.69
2022-08-09T04:48:04.237Z,17.59
2022-08-09T04:50:38.078Z,17.53
2022-08-09T04:53:13.292Z,17.48
2022-08-09T04:55:58.507Z,17.57
2022-08-09T04:58:32.852Z,17.58
2022-08-09T05:01:02.025Z,17.51
2022-08-09T05:03:40.344Z,17.45
2022-08-09T05:06:11.959Z,17.36
2022-08-09T05:08:59.973Z,17.39
2022-08-09T05:11:32.495Z,17.40
2022-08-09T05:14:05.757Z,17.41
2022-08-09T05:16:33.925Z,17.39
2022-08-09T05:19:10.367Z,17.36
2022-08-09T05:21:47.068Z,17.28
2022-08-09T05:24:18.859Z,17.25
2022-08-09T05:26:47.652Z,17.35
2022-08-09T05:29:21.516Z,17.38
2022-08-09T05:31:57.240Z,17.37
2022-08-09T05:34:30.970Z,17.38
2022-08-09T05:37:05.179Z,17.52
2022-08-09T05:39:43.239Z,17.58
2022-08-09T05:42:17.540Z,17.51
2022-08-09T05:44:52.629Z,17.52
2022-08-09T05:47:21.430Z,17.82
2022-08-09T05:50:25.805Z,17.59
2022-08-09T05:52:36.292Z,17.62
2022-08-09T05:55:07.315Z,17.57
2022-08-09T05:57:50.735Z,17.65
2022-08-09T06:00:22.296Z,17.61
2022-08-09T06:02:49.040Z,17.70
2022-08-09T06:05:20.978Z,17.69
2022-08-09T06:08:08.043Z,17.75
2022-08-09T06:10:38.330Z,17.81
2022-08-09T06:13:12.176Z,17.77
2022-08-09T06:15:46.867Z,17.83
2022-08-09T06:18:14.093Z,17.86
2022-08-09T06:20:42.531Z,17.96
2022-08-09T06:23:11.979Z,17.85
2022-08-09T06:25:43.241Z,17.82
2022-08-09T06:28:10.138Z,17.90
2022-08-09T06:30:40.417Z,17.90
2022-08-09T06:33:30.586Z,17.91
2022-08-09T06:35:58.390Z,17.89
2022-08-09T06:38:32.161Z,17.96
2022-08-09T06:41:18.110Z,18.02
2022-08-09T06:43:47.008Z,18.12
2022-08-09T06:46:40.147Z,18.11
2022-08-09T06:49:01.054Z,18.17
2022-08-09T06:51:27.984Z,18.29
2022-08-09T06:53:55.081Z,18.36
2022-08-09T06:56:21.888Z,18.48
2022-08-09T07:00:50.167Z,18.62
2022-08-09T07:01:54.026Z,18.56
2022-08-09T07:04:24.805Z,18.50
2022-08-09T07:07:00.107Z,18.50
2022-08-09T07:09:55.467Z,18.62
2022-08-09T07:12:18.218Z,18.60
2022-08-09T07:14:51.372Z,18.73
2022-08-09T07:17:20.341Z,18.78
2022-08-09T07:19:50.852Z,18.88
2022-08-09T07:22:27.469Z,19.12
2022-08-09T07:25:05.520Z,19.08
2022-08-09T07:27:42.911Z,19.18
2022-08-09T07:30:24.662Z,18.98
2022-08-09T07:32:51.909Z,19.09
2022-08-09T07:35:19.286Z,19.30
2022-08-09T07:37:47.936Z,19.17
2022-08-09T07:40:20.246Z,19.21
2022-08-09T07:42:59.071Z,19.28
2022-08-09T07:45:40.435Z,19.64
2022-08-09T07:48:25.604Z,20.01
2022-08-09T07:51:09.329Z,20.30
2022-08-09T07:54:07.567Z,20.48
2022-08-09T07:56:49.810Z,20.67
2022-08-09T07:59:34.830Z,20.76
2022-08-09T08:02:05.442Z,20.85
2022-08-09T08:04:33.217Z,20.67
2022-08-09T08:07:15.034Z,20.72
2022-08-09T08:09:55.086Z,20.70
2022-08-09T08:12:35.589Z,20.78
2022-08-09T08:15:04.521Z,20.88
2022-08-09T08:17:52.509Z,20.89
2022-08-09T08:20:29.575Z,21.04
2022-08-09T08:23:01.402Z,21.15
2022-08-09T08:25:44.498Z,21.25
2022-08-09T08:28:14.247Z,21.40
2022-08-09T08:30:41.451Z,21.46
2022-08-09T08:33:11.852Z,21.52
2022-08-09T08:35:58.343Z,21.67
2022-08-09T08:38:28.290Z,21.77
2022-08-09T08:40:56.335Z,21.88
2022-08-09T08:43:24.147Z,21.91
2022-08-09T08:46:10.292Z,21.90
2022-08-09T08:48:51.350Z,22.16
2022-08-09T08:51:18.867Z,22.32
2022-08-09T08:54:02.999Z,22.48
2022-08-09T08:56:36.279Z,22.75
2022-08-09T08:59:19.815Z,22.95
2022-08-09T09:01:52.789Z,23.23
2022-08-09T09:04:27.077Z,23.41
2022-08-09T09:06:58.048Z,23.62
2022-08-09T09:09:58.371Z,23.93
2022-08-09T09:12:16.645Z,24.18
2022-08-09T09:14:44.922Z,24.14
2022-08-09T09:17:12.997Z,24.36
2022-08-09T09:19:43.856Z,24.60
2022-08-09T09:22:15.999Z,24.72
2022-08-09T09:24:43.558Z,24.80
2022-08-09T09:28:03.169Z,24.92
2022-08-09T09:30:14.262Z,25.11
2022-08-09T09:32:43.310Z,25.33
2022-08-09T09:35:15.998Z,25.47
2022-08-09T09:37:46.208Z,25.59
2022-08-09T09:40:13.161Z,25.56
2022-08-09T09:42:43.123Z,25.82
2022-08-09T09:45:14.289Z,25.80
2022-08-09T09:47:58.222Z,26.00
2022-08-09T09:50:50.814Z,26.13
2022-08-09T09:53:25.218Z,26.28
2022-08-09T09:56:20.002Z,26.50
2022-08-09T09:58:57.339Z,26.42
2022-08-09T10:01:31.544Z,26.63
2022-08-09T10:04:12.713Z,26.64
2022-08-09T10:06:46.985Z,26.90
2022-08-09T10:09:22.752Z,27.19
2022-08-09T10:12:11.909Z,27.19
2022-08-09T10:14:47.753Z,27.26
2022-08-09T10:17:40.276Z,27.11
2022-08-09T10:20:05.593Z,27.32
2022-08-09T10:22:41.907Z,27.52
2022-08-09T10:25:12.538Z,27.63
2022-08-09T10:27:57.358Z,27.98
2022-08-09T10:33:29.960Z,28.23
2022-08-09T10:36:00.819Z,28.38
2022-08-09T10:38:54.271Z,28.32
2022-08-09T10:41:16.990Z,28.48
2022-08-09T10:43:59.888Z,28.71
2022-08-09T10:46:57.671Z,29.01
2022-08-09T10:49:50.922Z,29.04
2022-08-09T10:52:42.976Z,29.14
2022-08-09T10:55:29.198Z,29.26
2022-08-09T10:58:37.149Z,29.38
2022-08-09T11:03:06.689Z,29.27
2022-08-09T11:04:28.559Z,29.55
2022-08-09T11:06:59.605Z,29.69
2022-08-09T11:09:38.910Z,29.62
2022-08-09T11:12:18.434Z,29.94
2022-08-09T11:15:01.631Z,30.00
2022-08-09T11:17:31.835Z,30.22
2022-08-09T11:20:10.716Z,30.13
2022-08-09T11:22:56.913Z,30.19
2022-08-09T11:25:44.556Z,30.43
2022-08-09T11:28:34.638Z,30.64
2022-08-09T11:31:43.082Z,30.44
2022-08-09T11:34:27.448Z,30.70
2022-08-09T11:36:56.805Z,31.00
2022-08-09T11:39:24.448Z,31.07
2022-08-09T11:41:53.692Z,31.17
2022-08-09T11:44:44.647Z,31.72
2022-08-09T11:47:14.431Z,31.56
2022-08-09T11:50:53.706Z,31.83
2022-08-09T11:53:58.484Z,31.16
2022-08-09T11:55:53.361Z,31.02
2022-08-09T11:58:33.188Z,31.35
2022-08-09T12:01:00.454Z,31.61
2022-08-09T12:03:55.404Z,31.92
2022-08-09T12:06:26.535Z,31.89
2022-08-09T12:08:57.010Z,31.61
2022-08-09T12:11:27.114Z,32.36
2022-08-09T12:14:10.136Z,31.63
2022-08-09T12:16:44.489Z,31.91
2022-08-09T12:19:13.650Z,32.12
2022-08-09T12:21:50.708Z,32.56
2022-08-09T12:24:24.117Z,32.81
2022-08-09T12:29:11.661Z,33.33
2022-08-09T12:30:01.758Z,34.30
2022-08-09T12:32:41.030Z,34.11
2022-08-09T12:35:10.925Z,34.04
2022-08-09T12:37:50.664Z,34.64
2022-08-09T12:40:21.241Z,35.35
2022-08-09T12:42:50.427Z,35.79
2022-08-09T12:45:34.057Z,35.35
2022-08-09T12:48:20.181Z,35.14
2022-08-09T12:50:57.493Z,34.96
2022-08-09T12:53:36.666Z,35.18
2022-08-09T12:56:15.703Z,36.15
2022-08-09T12:59:11.750Z,35.60
2022-08-09T13:01:49.037Z,34.96
2022-08-09T13:04:37.153Z,35.57
2022-08-09T13:07:19.679Z,36.20
2022-08-09T13:10:02.933Z,36.34
2022-08-09T13:12:30.868Z,35.36
2022-08-09T13:15:09.086Z,34.47
2022-08-09T13:18:03.229Z,34.32
2022-08-09T13:20:37.430Z,34.62
2022-08-09T13:24:17.350Z,34.00
2022-08-09T13:26:05.619Z,34.37
2022-08-09T13:28:36.782Z,35.32
2022-08-09T13:32:17.771Z,35.80
2022-08-09T13:33:56.581Z,36.15
2022-08-09T13:36:40.904Z,36.50
2022-08-09T13:41:54.828Z,37.12
2022-08-09T13:42:04.895Z,37.86
2022-08-09T13:44:32.722Z,38.18
2022-08-09T13:47:16.012Z,38.31
2022-08-09T13:49:56.489Z,38.58
2022-08-09T13:52:26.073Z,38.60
2022-08-09T13:55:00.028Z,37.39
2022-08-09T13:57:40.256Z,37.45
2022-08-09T14:00:28.710Z,37.50
2022-08-09T14:03:02.957Z,37.07
2022-08-09T14:05:59.034Z,37.34
2022-08-09T14:08:30.317Z,37.58
2022-08-09T14:11:00.303Z,38.66
2022-08-09T14:14:22.366Z,38.06
2022-08-09T14:16:17.190Z,37.60
2022-08-09T14:18:49.764Z,37.77
2022-08-09T14:21:22.676Z,38.23
2022-08-09T14:23:55.322Z,38.73
2022-08-09T14:26:32.890Z,38.21
2022-08-09T14:29:46.394Z,38.44
2022-08-09T14:31:58.757Z,38.22
2022-08-09T14:34:33.081Z,38.38
2022-08-09T14:37:07.625Z,37.98
2022-08-09T14:39:45.421Z,38.26
2022-08-09T14:42:30.204Z,38.44
2022-08-09T14:46:39.940Z,39.08
2022-08-09T14:47:58.956Z,38.22
2022-08-09T14:50:31.691Z,38.23
2022-08-09T14:53:02.144Z,38.40
2022-08-09T14:55:32.166Z,38.82
2022-08-09T14:57:59.423Z,38.66
2022-08-09T15:00:27.029Z,37.89
2022-08-09T15:02:58.387Z,38.03
2022-08-09T15:05:26.875Z,37.47
2022-08-09T15:07:56.527Z,38.28
2022-08-09T15:10:25.325Z,38.86
2022-08-09T15:12:53.293Z,39.18
2022-08-09T15:15:20.239Z,39.50
2022-08-09T15:17:52.555Z,39.50
2022-08-09T15:21:55.665Z,39.73
2022-08-09T15:24:02.710Z,40.08
2022-08-09T15:25:57.483Z,40.56
2022-08-09T15:28:27.803Z,41.66
2022-08-09T15:31:07.432Z,44.05
2022-08-09T15:34:31.774Z,43.47
2022-08-09T15:36:30.100Z,45.06
2022-08-09T15:38:58.843Z,45.46
2022-08-09T15:41:32.309Z,44.83
2022-08-09T15:44:03.652Z,46.22
2022-08-09T15:46:32.426Z,46.73
2022-08-09T15:49:20.511Z,45.41
2022-08-09T15:52:03.580Z,45.19
2022-08-09T15:54:44.341Z,45.48
2022-08-09T15:57:13.332Z,45.58
2022-08-09T15:59:40.073Z,46.05
2022-08-09T16:02:09.065Z,45.94
2022-08-09T16:04:40.042Z,46.01
2022-08-09T16:07:11.449Z,45.81
2022-08-09T16:10:02.223Z,45.45
2022-08-09T16:12:30.825Z,45.34
2022-08-09T16:14:57.906Z,45.75
2022-08-09T16:17:24.469Z,45.60
2022-08-09T16:20:04.704Z,45.48
2022-08-09T16:22:36.925Z,45.40
2022-08-09T16:25:10.735Z,45.54
2022-08-09T16:27:38.681Z,44.84
2022-08-09T16:30:15.224Z,45.06
2022-08-09T16:33:11.540Z,44.83
2022-08-09T16:35:57.528Z,45.15
2022-08-09T16:38:26.844Z,44.85
2022-08-09T16:40:53.567Z,44.41
2022-08-09T16:43:22.088Z,44.07
2022-08-09T16:45:53.846Z,43.59
2022-08-09T16:48:50.530Z,43.09
2022-08-09T16:51:14.224Z,42.43
2022-08-09T16:54:09.124Z,42.46
2022-08-09T16:56:31.526Z,40.72
2022-08-09T16:58:59.264Z,39.91
2022-08-09T17:01:28.800Z,40.30
2022-08-09T17:04:00.643Z,40.16
2022-08-09T17:06:31.289Z,40.35
2022-08-09T17:09:09.469Z,39.82
2022-08-09T17:11:44.758Z,39.26
2022-08-09T17:14:27.362Z,39.03
2022-08-09T17:17:01.506Z,38.70
2022-08-09T17:20:12.645Z,38.19
2022-08-09T17:22:24.832Z,37.47
2022-08-09T17:25:03.294Z,37.40
2022-08-09T17:27:33.062Z,37.83
2022-08-09T17:29:59.764Z,38.14
2022-08-09T17:32:37.384Z,38.94
2022-08-09T17:35:11.185Z,39.60
2022-08-09T17:38:10.110Z,39.64
2022-08-09T17:40:26.935Z,39.17
2022-08-09T17:43:03.330Z,39.00
2022-08-09T17:46:02.804Z,38.91
2022-08-09T17:48:29.238Z,38.22
2022-08-09T17:50:59.425Z,37.87
2022-08-09T17:53:43.415Z,37.13
2022-08-09T17:56:19.534Z,36.35
2022-08-09T17:58:47.442Z,36.16
2022-08-09T18:01:22.111Z,35.87
2022-08-09T18:03:49.827Z,35.77
2022-08-09T18:06:31.625Z,35.70
2022-08-09T18:09:06.366Z,35.38
2022-08-09T18:12:05.368Z,35.19
2022-08-09T18:14:22.172Z,34.91
2022-08-09T18:16:49.679Z,34.71
2022-08-09T18:20:55.679Z,34.47
2022-08-09T18:22:03.983Z,34.08
2022-08-09T18:24:31.128Z,33.78
2022-08-09T18:26:57.931Z,33.90
2022-08-09T18:30:38.507Z,33.79
2022-08-09T18:32:14.514Z,33.50
2022-08-09T18:34:45.911Z,33.34
2022-08-09T18:37:47.798Z,33.25
2022-08-09T18:40:01.757Z,33.12
2022-08-09T18:42:29.569Z,33.05
2022-08-09T18:44:56.942Z,32.91
2022-08-09T18:47:24.308Z,32.88
2022-08-09T18:49:54.447Z,32.60
2022-08-09T18:52:24.974Z,32.49
2022-08-09T18:55:01.181Z,32.26
2022-08-09T18:57:43.018Z,32.08
2022-08-09T19:00:19.115Z,31.96
2022-08-09T19:02:47.954Z,31.90
2022-08-09T19:05:24.486Z,31.86
2022-08-09T19:08:09.986Z,31.63
2022-08-09T19:10:39.187Z,31.57
2022-08-09T19:13:22.954Z,31.51
2022-08-09T19:16:01.240Z,31.36
2022-08-09T19:18:36.476Z,31.36
2022-08-09T19:21:09.642Z,31.03
2022-08-09T19:24:33.161Z,30.98
2022-08-09T19:26:31.659Z,30.90
2022-08-09T19:29:09.453Z,30.75
2022-08-09T19:31:46.479Z,30.58
2022-08-09T19:34:21.352Z,30.49
2022-08-09T19:36:50.961Z,30.19
2022-08-09T19:39:17.573Z,30.11
2022-08-09T19:41:48.660Z,29.97
2022-08-09T19:44:20.625Z,29.75
2022-08-09T19:46:50.595Z,29.62
2022-08-09T19:50:08.234Z,29.61
2022-08-09T19:52:08.394Z,29.47
2022-08-09T19:54:35.643Z,29.42
2022-08-09T19:57:03.728Z,29.28
2022-08-09T19:59:59.554Z,29.18
2022-08-09T20:04:09.705Z,29.11
2022-08-09T20:05:11.349Z,29.07
2022-08-09T20:07:59.277Z,28.89
2022-08-09T20:10:34.351Z,28.64
2022-08-09T20:13:03.249Z,28.59
2022-08-09T20:16:35.699Z,28.70
2022-08-09T20:18:20.305Z,28.67
2022-08-09T20:20:51.032Z,28.57
2022-08-09T20:23:20.973Z,28.58
2022-08-09T20:25:52.323Z,28.45
2022-08-09T20:28:34.459Z,28.42
2022-08-09T20:31:11.161Z,28.48
2022-08-09T20:33:44.180Z,28.41
2022-08-09T20:36:11.528Z,28.25
2022-08-09T20:39:17.072Z,28.19
2022-08-09T20:41:35.315Z,28.27
2022-08-09T20:44:09.935Z,28.13
2022-08-09T20:46:44.111Z,27.99
2022-08-09T20:49:13.688Z,27.97
2022-08-09T20:51:41.981Z,27.97
2022-08-09T20:54:12.710Z,27.77
2022-08-09T20:56:44.030Z,27.72
2022-08-09T20:59:16.836Z,27.75
2022-08-09T21:01:51.385Z,27.71
2022-08-09T21:05:52.520Z,27.65
2022-08-09T21:07:11.597Z,27.54
2022-08-09T21:09:42.239Z,27.47
2022-08-09T21:14:48.263Z,27.24
2022-08-09T21:18:23.528Z,27.15
2022-08-09T21:20:17.591Z,27.08
2022-08-09T21:22:52.430Z,27.06
2022-08-09T21:25:39.067Z,26.91
2022-08-09T21:28:12.285Z,26.84
2022-08-09T21:30:42.592Z,26.76
2022-08-09T21:33:09.922Z,26.76
2022-08-09T21:35:39.467Z,26.64
2022-08-09T21:38:21.106Z,26.68
2022-08-09T21:40:58.467Z,26.38
2022-08-09T21:43:46.591Z,26.40
2022-08-09T21:46:12.432Z,26.26
2022-08-09T21:48:42.796Z,26.28
2022-08-09T21:51:24.286Z,26.20
2022-08-09T21:54:02.551Z,26.21
2022-08-09T21:56:43.073Z,25.89
2022-08-09T21:59:11.642Z,26.05
2022-08-09T22:02:00.401Z,25.94
2022-08-09T22:04:55.772Z,25.76
2022-08-09T22:07:35.298Z,25.77
2022-08-09T22:10:01.579Z,25.84
2022-08-09T22:12:30.742Z,25.91
2022-08-09T22:14:58.497Z,25.74
2022-08-09T22:17:25.854Z,25.70
2022-08-09T22:19:58.429Z,25.85
2022-08-09T22:22:27.069Z,25.81
2022-08-09T22:26:08.562Z,25.58
2022-08-09T22:27:40.508Z,25.36
2022-08-09T22:30:07.872Z,25.47
2022-08-09T22:32:34.877Z,25.32
2022-08-09T22:35:06.630Z,25.32
2022-08-09T22:37:40.133Z,25.13
2022-08-09T22:40:10.368Z,25.27
2022-08-09T22:42:44.962Z,25.24
2022-08-09T22:48:13.941Z,25.33
2022-08-09T22:48:16.426Z,25.06
2022-08-09T22:50:52.544Z,24.65
2022-08-09T22:53:19.876Z,24.82
2022-08-09T22:56:30.893Z,24.71
2022-08-09T22:58:33.958Z,24.67
2022-08-09T23:01:05.903Z,24.64
2022-08-09T23:04:04.733Z,24.53
2022-08-09T23:06:35.753Z,24.43
2022-08-09T23:09:04.531Z,24.42
2022-08-09T23:11:31.159Z,24.42
2022-08-09T23:13:59.604Z,24.34
2022-08-09T23:16:26.142Z,24.36
2022-08-09T23:18:52.673Z,24.29
2022-08-09T23:21:25.184Z,24.18
2022-08-09T23:24:04.163Z,24.13
2022-08-09T23:26:37.514Z,24.01
2022-08-09T23:29:11.512Z,24.00
2022-08-09T23:31:38.138Z,24.04
2022-08-09T23:34:05.044Z,23.95
2022-08-09T23:36:33.593Z,23.94
2022-08-09T23:39:00.633Z,23.89
2022-08-09T23:41:29.493Z,23.82
2022-08-09T23:43:58.280Z,23.77
2022-08-09T23:46:24.871Z,23.80
2022-08-09T23:48:51.510Z,23.88
2022-08-09T23:51:18.042Z,24.05
2022-08-09T23:53:44.584Z,23.98
2022-08-09T23:56:12.263Z,24.07
2022-08-09T23:58:38.791Z,24.02
